青島 の空港の天気 - METARとTAF

青島流亭国際空港 ( ZSQD / TAO ) - 中国 山東省青島市
飛行場実況気象(Metar)
観測時間11/21 20:00 CST (11/21 12:00 UTC)
風向・風速南南東 4m/s
視程10km以上
天気現象
全天の4割程度の雲 雲底高度 1520m
気温13℃
湿度62%
気圧1026hPa
METARZSQD 211200Z 15004MPS 9999 SCT050 13/06 Q1026 NOSIG
過去の天気等 Google飛行場航空写真 Wunderground天気予報

過去48時間のMETAR

飛行場予報(TAF)
発表時間: 11/21 17:20 CST (11/21 09:20 UTC)
予報対象時間: 21日20時 CST ~ 22日20時 CST
風向・風速南南東 6m/s
視程10km以上
全天の8割程度の雲 雲底高度 910m
TAF ZSQD 210920Z 2112/2212 16006MPS 9999 BKN030 TX16/2206Z TN07/2121Z